»·PEaware :: TPX1021 KSNA-KPSP

TPX1021 :: KSNA-KPSP

FLIGHT INFORMATION

Flight Status: Arrived
Operator: ATP Experience
More flights by this operator :: More flights under this callsign
Pilot: Dave P. (45)
Aircraft: DEHAVILLAND DASH 8 400
(DH8D)
More flights by this aircraft type
Origin: KSNA John Wayne-Orange Co
United States
Destination: KPSP Palm Springs Intl
United States
More flights between these airports :: More routes between these airports
Route: +MUSEL8 SLI NIKKL V64 TRM
File this flight plan on PilotEdge
Remarks: RMK / SIMBRIEF
Altitude:
(Current/Filed)
17,000ft
Speed:
(Current/Filed)
320kts
Departed: 01-Jun-19 08:00 AM
Arrived: 01-Jun-19 08:26 AM
Distance/Time
Traveled:
68nm/0:26
Distance/Time
To Go:
Arrived

Flight Plot

Page will automatically refresh every two minutes.


Map Options




Map Legend


Flown Route
Filed Route
Departure Airport
Arrival Airport
Navaid (VOR, NDB)
Fix

Horizontal Profiles

Position Reports

Time Latitude Longitude Heading Altitude Ground
Speed
01-Jun-19 07:28 33.682383 -117.860454 116 63ft 0kts
01-Jun-19 07:29 33.682383 -117.860454 116 63ft 0kts
01-Jun-19 07:30 33.682383 -117.860454 116 63ft 0kts
01-Jun-19 07:31 33.682383 -117.860454 116 63ft 0kts
01-Jun-19 07:32 33.682383 -117.860454 116 63ft 0kts
01-Jun-19 07:33 33.682383 -117.860454 116 63ft 0kts
01-Jun-19 07:33 33.682383 -117.860454 116 63ft 0kts
01-Jun-19 07:34 33.682383 -117.860454 116 63ft 0kts
01-Jun-19 07:36 33.682383 -117.860454 116 63ft 0kts
01-Jun-19 07:36 33.682383 -117.860454 116 63ft 0kts
01-Jun-19 07:37 33.682383 -117.860454 116 63ft 0kts
01-Jun-19 07:39 33.682383 -117.860454 116 63ft 0kts
01-Jun-19 07:39 33.682383 -117.860454 116 63ft 0kts
01-Jun-19 07:40 33.682383 -117.860454 116 63ft 0kts
01-Jun-19 07:41 33.682383 -117.860454 116 63ft 0kts
01-Jun-19 07:42 33.682383 -117.860454 116 63ft 0kts
01-Jun-19 07:43 33.682383 -117.860454 116 63ft 0kts
01-Jun-19 07:44 33.682383 -117.860454 116 63ft 0kts
01-Jun-19 07:45 33.682383 -117.860454 116 63ft 0kts
01-Jun-19 07:46 33.682383 -117.860454 116 63ft 0kts
01-Jun-19 07:47 33.682383 -117.860454 116 63ft 0kts
01-Jun-19 07:48 33.682383 -117.860454 116 63ft 0kts
01-Jun-19 07:49 33.682383 -117.860454 116 63ft 0kts
01-Jun-19 07:50 33.682705 -117.860762 213 63ft 0kts
01-Jun-19 07:51 33.682705 -117.860762 213 63ft 0kts
01-Jun-19 07:52 33.682705 -117.860762 213 63ft 0kts
01-Jun-19 07:53 33.682705 -117.860762 213 63ft 0kts
01-Jun-19 07:54 33.682705 -117.860762 213 63ft 0kts
01-Jun-19 07:55 33.682005 -117.861497 207 63ft 15kts
01-Jun-19 07:56 33.681146 -117.864263 297 63ft 0kts
01-Jun-19 07:58 33.681412 -117.865237 226 63ft 11kts
01-Jun-19 07:59 33.654804 -117.881921 206 1280ft 151kts
01-Jun-19 08:00 33.611876 -117.900406 198 4237ft 164kts
01-Jun-19 08:01 33.563525 -117.915895 162 6737ft 196kts
01-Jun-19 08:02 33.533904 -117.853625 104 7107ft 233kts
01-Jun-19 08:03 33.523486 -117.780035 82 7590ft 224kts
01-Jun-19 08:04 33.531266 -117.702771 84 9795ft 238kts
01-Jun-19 08:05 33.540840 -117.623209 82 11878ft 247kts
01-Jun-19 08:06 33.552205 -117.537700 82 12982ft 283kts
01-Jun-19 08:07 33.568882 -117.438270 78 13008ft 319kts
01-Jun-19 08:08 33.590488 -117.333377 77 13002ft 325kts
01-Jun-19 08:09 33.612245 -117.228109 77 12999ft 325kts
01-Jun-19 08:10 33.633993 -117.122468 77 12981ft 326kts
01-Jun-19 08:11 33.655697 -117.016882 77 12974ft 326kts
01-Jun-19 08:12 33.677169 -116.911000 77 12965ft 327kts
01-Jun-19 08:13 33.685139 -116.803757 98 12959ft 323kts
01-Jun-19 08:14 33.674984 -116.697067 97 13019ft 320kts
01-Jun-19 08:15 33.666236 -116.592761 97 12567ft 290kts
01-Jun-19 08:16 33.657697 -116.499421 97 9627ft 276kts
01-Jun-19 08:17 33.650066 -116.415797 96 7622ft 239kts
01-Jun-19 08:18 33.643661 -116.346829 95 6963ft 171kts
01-Jun-19 08:19 33.664686 -116.295611 4 6440ft 206kts
01-Jun-19 08:20 33.708157 -116.335977 312 4479ft 197kts
01-Jun-19 08:21 33.740182 -116.385058 305 3032ft 183kts
01-Jun-19 08:22 33.764839 -116.436827 298 2115ft 170kts
01-Jun-19 08:23 33.791917 -116.474554 326 1149ft 131kts
01-Jun-19 08:24 33.821247 -116.500176 325 533ft 127kts
01-Jun-19 08:25 33.828600 -116.508644 176 484ft 10kts
01-Jun-19 08:26 33.824614 -116.505223 143 484ft 23kts
01-Jun-19 08:27 33.821853 -116.506965 237 484ft 5kts
01-Jun-19 08:28 33.821772 -116.507061 223 484ft 0kts
01-Jun-19 08:29 33.821772 -116.507061 223 484ft 0kts
01-Jun-19 08:30 33.821772 -116.507061 223 484ft 0kts
01-Jun-19 08:31 33.821772 -116.507061 223 484ft 0kts
01-Jun-19 08:32 33.821772 -116.507061 223 484ft 0kts
01-Jun-19 08:33 33.821772 -116.507061 223 484ft 0kts
01-Jun-19 08:34 33.821772 -116.507061 223 484ft 0kts
01-Jun-19 08:35 33.821772 -116.507061 223 484ft 0kts
01-Jun-19 08:36 33.821772 -116.507061 223 484ft 0kts
01-Jun-19 08:37 33.821772 -116.507061 223 484ft 0kts
01-Jun-19 08:38 33.821772 -116.507061 223 484ft 0kts
01-Jun-19 08:39 33.821772 -116.507061 223 484ft 0kts

Navigation Log

Ident Type
Flight plan parsing failed, navigation log unavailable